Time;durP1;ratioP1;P1;durP2;ratioP2;P2;SDS_P1;SDS_P2;PMS_P1;PMS_P2;Temp;Humidity;BMP_temperature;BMP_pressure;BME280_temperature;BME280_humidity;BME280_pressure;Samples;Min_cycle;Max_cycle;Signal;HPM_P1;HPM_P2
2022/11/05 00:10:17;;;;;;;;;;;7.10;99.90;;;;;;5115096;28;19915;-37
2022/11/05 00:18:11;;;;;;;;;;;7.20;99.90;;;;;;5114695;28;19918;-36
2022/11/05 00:20:36;;;;;;;;;;;7.30;99.90;;;;;;5114630;28;19908;-38
2022/11/05 00:25:53;;;;;;;;;;;7.40;99.90;;;;;;5114498;28;19915;-36
2022/11/05 00:28:19;;;;;;;;;;;7.50;99.90;;;;;;5113716;28;19977;-39
2022/11/05 00:30:44;;;;;;;;;;;7.60;99.90;;;;;;5126114;27;19911;-38
2022/11/05 00:33:10;;;;;;;;;;;7.70;99.90;;;;;;5134717;27;19919;-37
2022/11/05 00:35:35;;;;;;;;;;;7.70;99.90;;;;;;5134032;27;19911;-37
2022/11/05 00:38:01;;;;;;;;;;;7.80;99.90;;;;;;5131867;27;19959;-39
2022/11/05 00:40:26;;;;;;;;;;;7.80;99.90;;;;;;5130398;27;20010;-38
2022/11/05 00:45:36;;;;;;;;;;;7.80;99.90;;;;;;5135063;27;19914;-38
2022/11/05 00:50:46;;;;;;;;;;;7.90;99.90;;;;;;5133761;27;19964;-38
2022/11/05 00:53:11;;;;;;;;;;;7.90;99.90;;;;;;5134062;27;20542;-38
2022/11/05 00:55:38;;;;;;;;;;;7.80;99.90;;;;;;5134174;27;19952;-37
2022/11/05 00:58:14;;;;;;;;;;;7.80;99.90;;;;;;5133570;27;19915;-38
2022/11/05 01:00:41;;;;;;;;;;;7.70;99.90;;;;;;5134064;27;19960;-37
2022/11/05 01:03:07;;;;;;;;;;;7.70;99.90;;;;;;5133955;27;19918;-43
2022/11/05 01:05:36;;;;;;;;;;;7.60;99.90;;;;;;5133918;27;19907;-39
2022/11/05 01:08:02;;;;;;;;;;;7.60;99.90;;;;;;5134052;27;20373;-38
2022/11/05 01:10:27;;;;;;;;;;;7.50;99.90;;;;;;5119441;27;19996;-38
2022/11/05 01:12:53;;;;;;;;;;;7.50;99.90;;;;;;5113503;28;19959;-38
2022/11/05 01:15:18;;;;;;;;;;;7.50;99.90;;;;;;5113662;28;19915;-39
2022/11/05 01:17:44;;;;;;;;;;;7.50;99.90;;;;;;5112780;28;19914;-38
2022/11/05 01:20:10;;;;;;;;;;;7.50;99.90;;;;;;5113301;28;19912;-38
2022/11/05 01:22:35;;;;;;;;;;;7.50;99.90;;;;;;5113379;28;19930;-37
2022/11/05 01:25:01;;;;;;;;;;;7.40;99.90;;;;;;5112460;28;19918;-38
2022/11/05 01:27:26;;;;;;;;;;;7.40;99.90;;;;;;5113371;28;19954;-36
2022/11/05 01:29:52;;;;;;;;;;;7.40;99.90;;;;;;5122925;27;19918;-36
2022/11/05 01:32:17;;;;;;;;;;;7.30;99.90;;;;;;5133093;27;19907;-38
2022/11/05 01:34:43;;;;;;;;;;;7.20;99.90;;;;;;5133781;27;20354;-37
2022/11/05 01:37:08;;;;;;;;;;;7.20;99.90;;;;;;5133942;27;19950;-38
2022/11/05 01:39:33;;;;;;;;;;;7.20;99.90;;;;;;5133379;27;19952;-37
2022/11/05 01:41:59;;;;;;;;;;;7.10;99.90;;;;;;5133366;27;19962;-37
2022/11/05 01:44:45;;;;;;;;;;;7.10;99.90;;;;;;5134106;27;19908;-40
2022/11/05 01:47:19;;;;;;;;;;;7.10;99.90;;;;;;5132773;27;19951;-38
2022/11/05 01:49:44;;;;;;;;;;;7.10;99.90;;;;;;5121467;28;20000;-37
2022/11/05 01:52:10;;;;;;;;;;;7.00;99.90;;;;;;5112911;28;19986;-37
2022/11/05 01:54:35;;;;;;;;;;;7.10;99.90;;;;;;5112254;28;19916;-38
2022/11/05 01:57:04;;;;;;;;;;;7.10;99.90;;;;;;5113152;28;19918;-37
2022/11/05 01:59:34;;;;;;;;;;;7.00;99.90;;;;;;5132718;28;19933;-37
2022/11/05 02:02:00;;;;;;;;;;;7.00;99.90;;;;;;5133234;28;19907;-37
2022/11/05 02:04:38;;;;;;;;;;;7.00;99.90;;;;;;5133562;27;19914;-37
2022/11/05 02:07:05;;;;;;;;;;;6.90;99.90;;;;;;5136783;27;19907;-37
2022/11/05 02:09:38;;;;;;;;;;;7.00;99.90;;;;;;5137608;27;20401;-38
2022/11/05 02:12:04;;;;;;;;;;;6.90;99.90;;;;;;5137517;27;19911;-37
2022/11/05 02:14:29;;;;;;;;;;;6.90;99.90;;;;;;5124644;27;19931;-37
2022/11/05 02:16:59;;;;;;;;;;;6.90;99.90;;;;;;5116927;28;19973;-36
2022/11/05 02:19:43;;;;;;;;;;;6.90;99.90;;;;;;5117034;28;19908;-39
2022/11/05 02:22:21;;;;;;;;;;;6.90;99.90;;;;;;5116012;28;19937;-39
2022/11/05 02:24:55;;;;;;;;;;;6.90;99.90;;;;;;5116741;28;19919;-37
2022/11/05 02:27:30;;;;;;;;;;;6.90;99.90;;;;;;5116875;28;20323;-36
2022/11/05 02:30:14;;;;;;;;;;;6.80;99.90;;;;;;5116001;28;19998;-37
2022/11/05 02:32:40;;;;;;;;;;;6.80;99.90;;;;;;5116638;28;19970;-36
2022/11/05 02:35:17;;;;;;;;;;;6.80;99.90;;;;;;5116067;28;19967;-37
2022/11/05 02:37:43;;;;;;;;;;;6.70;99.90;;;;;;5116649;28;19908;-38
2022/11/05 02:40:18;;;;;;;;;;;6.70;99.90;;;;;;5121895;27;19911;-37
2022/11/05 02:42:44;;;;;;;;;;;6.70;99.90;;;;;;5135744;27;19920;-38
2022/11/05 02:45:15;;;;;;;;;;;6.70;99.90;;;;;;5136963;27;20358;-38
2022/11/05 02:47:43;;;;;;;;;;;6.60;99.90;;;;;;5136903;27;19907;-38
2022/11/05 02:50:22;;;;;;;;;;;6.60;99.90;;;;;;5136104;27;20269;-38
2022/11/05 02:53:02;;;;;;;;;;;6.60;99.90;;;;;;5136719;27;19971;-36
2022/11/05 02:55:32;;;;;;;;;;;6.60;99.90;;;;;;5136885;27;20238;-37
2022/11/05 02:57:58;;;;;;;;;;;6.60;99.90;;;;;;5135954;27;19952;-38
2022/11/05 03:00:42;;;;;;;;;;;6.50;99.90;;;;;;5136763;27;19907;-38
2022/11/05 03:03:17;;;;;;;;;;;6.50;99.90;;;;;;5136030;27;19915;-37
2022/11/05 03:05:50;;;;;;;;;;;6.50;99.90;;;;;;5136695;27;19911;-41
2022/11/05 03:08:39;;;;;;;;;;;6.50;99.90;;;;;;5136108;27;19998;-37
2022/11/05 03:11:11;;;;;;;;;;;6.50;99.90;;;;;;5108268;28;19990;-36
2022/11/05 03:13:42;;;;;;;;;;;6.50;99.90;;;;;;5115951;28;20402;-36
2022/11/05 03:16:13;;;;;;;;;;;6.50;99.90;;;;;;5115442;28;19989;-36
2022/11/05 03:18:39;;;;;;;;;;;6.50;99.90;;;;;;5114626;28;20362;-36
2022/11/05 03:21:15;;;;;;;;;;;6.50;99.90;;;;;;5115710;28;19932;-37
2022/11/05 03:23:47;;;;;;;;;;;6.50;99.90;;;;;;5115681;28;19912;-37
2022/11/05 03:26:41;;;;;;;;;;;6.40;99.90;;;;;;5115303;28;20498;-36
2022/11/05 03:29:16;;;;;;;;;;;6.40;99.90;;;;;;5105863;28;19911;-39
2022/11/05 03:31:43;;;;;;;;;;;6.40;99.90;;;;;;5114980;28;19908;-36
2022/11/05 03:34:10;;;;;;;;;;;6.40;99.90;;;;;;5115237;28;19968;-36
2022/11/05 03:36:40;;;;;;;;;;;6.40;99.90;;;;;;5115576;28;19951;-36
2022/11/05 03:39:07;;;;;;;;;;;6.40;99.90;;;;;;5115087;27;19912;-37
2022/11/05 03:41:33;;;;;;;;;;;6.40;99.90;;;;;;5115232;28;19908;-39
2022/11/05 03:44:01;;;;;;;;;;;6.40;99.90;;;;;;5115252;28;19920;-37
2022/11/05 03:46:29;;;;;;;;;;;6.30;99.90;;;;;;5114757;28;19915;-36
2022/11/05 03:48:55;;;;;;;;;;;6.30;99.90;;;;;;5115236;28;19915;-39
2022/11/05 03:51:28;;;;;;;;;;;6.40;99.90;;;;;;5115131;28;19918;-39
2022/11/05 03:53:55;;;;;;;;;;;6.30;99.90;;;;;;5114182;28;19923;-38
2022/11/05 03:56:30;;;;;;;;;;;6.30;99.90;;;;;;5114953;28;19912;-40
2022/11/05 03:58:55;;;;;;;;;;;6.30;99.90;;;;;;5114924;28;19911;-39
2022/11/05 04:01:21;;;;;;;;;;;6.30;99.90;;;;;;5114308;28;19919;-36
2022/11/05 04:03:47;;;;;;;;;;;6.20;99.90;;;;;;5114982;28;19929;-39
2022/11/05 04:14:25;;;;;;;;;;;6.30;99.90;;;;;;5134527;27;19922;-39
2022/11/05 04:17:05;;;;;;;;;;;6.30;99.90;;;;;;5135238;27;19907;-37
2022/11/05 04:25:03;;;;;;;;;;;6.20;99.90;;;;;;5135412;27;19960;-39
2022/11/05 04:27:28;;;;;;;;;;;6.20;99.90;;;;;;5134049;27;19912;-38
2022/11/05 04:32:38;;;;;;;;;;;6.20;99.90;;;;;;5134923;27;19956;-37
2022/11/05 04:35:03;;;;;;;;;;;6.20;99.90;;;;;;5134055;27;19915;-39
2022/11/05 04:37:29;;;;;;;;;;;6.20;99.90;;;;;;5123105;27;19908;-36
2022/11/05 04:39:54;;;;;;;;;;;6.20;99.90;;;;;;5114048;28;19912;-36
2022/11/05 04:42:19;;;;;;;;;;;6.20;99.90;;;;;;5113326;27;19923;-37
2022/11/05 04:44:45;;;;;;;;;;;6.10;99.90;;;;;;5113808;28;20370;-37
2022/11/05 04:47:10;;;;;;;;;;;6.20;99.90;;;;;;5114015;28;20318;-38
2022/11/05 04:49:36;;;;;;;;;;;6.10;99.90;;;;;;5113332;28;19994;-37
2022/11/05 04:52:01;;;;;;;;;;;6.10;99.90;;;;;;5113946;28;19912;-37
2022/11/05 04:54:27;;;;;;;;;;;6.10;99.90;;;;;;5113713;28;20331;-36
2022/11/05 04:56:52;;;;;;;;;;;6.10;99.90;;;;;;5113180;28;19965;-38
2022/11/05 04:59:18;;;;;;;;;;;6.10;99.90;;;;;;5113809;28;20476;-36
2022/11/05 05:01:43;;;;;;;;;;;6.10;99.90;;;;;;5113825;28;19908;-38
2022/11/05 05:04:08;;;;;;;;;;;6.10;99.90;;;;;;5112843;28;19907;-39
2022/11/05 05:06:34;;;;;;;;;;;6.00;99.90;;;;;;5116076;27;19951;-37
2022/11/05 05:08:59;;;;;;;;;;;6.10;99.90;;;;;;5134216;27;20402;-38
2022/11/05 05:11:25;;;;;;;;;;;6.10;99.90;;;;;;5133240;27;19907;-37
2022/11/05 05:13:50;;;;;;;;;;;6.10;99.90;;;;;;5133973;27;19974;-37
2022/11/05 05:16:23;;;;;;;;;;;6.10;99.90;;;;;;5134116;27;19907;-37
2022/11/05 05:18:49;;;;;;;;;;;6.20;99.90;;;;;;5134009;27;19914;-39
2022/11/05 05:24:00;;;;;;;;;;;6.20;99.90;;;;;;5133081;27;19919;-36
2022/11/05 05:26:26;;;;;;;;;;;6.20;99.90;;;;;;5133966;27;19907;-36
2022/11/05 05:28:52;;;;;;;;;;;6.10;99.90;;;;;;5132637;27;19915;-37
2022/11/05 05:31:18;;;;;;;;;;;6.10;99.90;;;;;;5132087;27;19908;-38
2022/11/05 05:33:43;;;;;;;;;;;6.10;99.90;;;;;;5133103;27;19929;-37
2022/11/05 05:36:09;;;;;;;;;;;6.10;99.90;;;;;;5132737;27;20369;-39
2022/11/05 05:38:34;;;;;;;;;;;6.20;99.90;;;;;;5132176;27;19911;-39
2022/11/05 05:40:59;;;;;;;;;;;6.20;99.90;;;;;;5132235;27;19947;-36
2022/11/05 05:43:29;;;;;;;;;;;6.10;99.90;;;;;;5132563;27;19920;-36
2022/11/05 05:45:56;;;;;;;;;;;6.10;99.90;;;;;;5132048;28;19950;-36
2022/11/05 05:48:22;;;;;;;;;;;6.10;99.90;;;;;;5132714;28;19911;-37
2022/11/05 05:50:48;;;;;;;;;;;6.10;99.90;;;;;;5132733;28;19935;-37
2022/11/05 05:53:13;;;;;;;;;;;6.00;99.90;;;;;;5131874;28;19974;-36
2022/11/05 05:55:38;;;;;;;;;;;6.00;99.90;;;;;;5132671;28;20293;-40
2022/11/05 05:58:04;;;;;;;;;;;6.00;99.90;;;;;;5127515;27;19911;-36
2022/11/05 06:00:29;;;;;;;;;;;6.00;99.90;;;;;;5111492;28;20405;-41
2022/11/05 06:02:55;;;;;;;;;;;6.00;99.90;;;;;;5111770;28;20384;-37
2022/11/05 06:05:20;;;;;;;;;;;6.00;99.90;;;;;;5111643;28;20053;-38
2022/11/05 06:07:46;;;;;;;;;;;5.90;99.90;;;;;;5111274;28;20341;-38
2022/11/05 06:10:11;;;;;;;;;;;5.90;99.90;;;;;;5111964;28;19922;-38
2022/11/05 06:12:37;;;;;;;;;;;5.90;99.90;;;;;;5111164;28;20359;-43
2022/11/05 06:15:03;;;;;;;;;;;5.90;99.90;;;;;;5111676;28;20033;-37
2022/11/05 06:17:28;;;;;;;;;;;5.90;99.90;;;;;;5112059;28;19915;-38
2022/11/05 06:19:54;;;;;;;;;;;5.90;99.90;;;;;;5111080;28;19954;-37
2022/11/05 06:22:19;;;;;;;;;;;5.90;99.90;;;;;;5111896;28;19966;-36
2022/11/05 06:24:44;;;;;;;;;;;5.90;99.90;;;;;;5111700;28;19912;-41
2022/11/05 06:27:10;;;;;;;;;;;5.90;99.90;;;;;;5111005;28;19951;-38
2022/11/05 06:29:35;;;;;;;;;;;5.80;99.90;;;;;;5130988;28;20016;-38
2022/11/05 06:32:01;;;;;;;;;;;5.80;99.90;;;;;;5132155;27;19957;-39
2022/11/05 06:34:26;;;;;;;;;;;5.80;99.90;;;;;;5131432;28;19916;-37
2022/11/05 06:36:52;;;;;;;;;;;5.80;99.90;;;;;;5132199;28;19990;-37
2022/11/05 06:39:17;;;;;;;;;;;5.80;99.90;;;;;;5132277;28;20266;-37
2022/11/05 06:41:43;;;;;;;;;;;5.80;99.90;;;;;;5131123;27;19914;-39
2022/11/05 06:44:08;;;;;;;;;;;5.80;99.90;;;;;;5132104;27;19907;-40
2022/11/05 06:46:34;;;;;;;;;;;5.80;99.90;;;;;;5132711;28;19911;-37
2022/11/05 06:48:59;;;;;;;;;;;5.80;99.90;;;;;;5132239;28;20489;-38
2022/11/05 06:51:25;;;;;;;;;;;5.90;99.90;;;;;;5132771;27;19958;-37
2022/11/05 06:53:51;;;;;;;;;;;5.80;99.90;;;;;;5135387;27;19919;-37
2022/11/05 06:56:16;;;;;;;;;;;5.80;99.90;;;;;;5134901;27;20030;-41
2022/11/05 06:58:42;;;;;;;;;;;5.90;99.90;;;;;;5135591;27;19912;-36
2022/11/05 07:01:09;;;;;;;;;;;5.90;99.90;;;;;;5136226;27;19911;-38
2022/11/05 07:03:35;;;;;;;;;;;5.90;99.90;;;;;;5135772;27;19908;-38
2022/11/05 07:06:02;;;;;;;;;;;5.90;99.90;;;;;;5136480;27;19914;-42
2022/11/05 07:08:31;;;;;;;;;;;5.90;99.90;;;;;;5136444;27;20407;-38
2022/11/05 07:10:57;;;;;;;;;;;6.00;99.90;;;;;;5135886;27;19993;-37
2022/11/05 07:13:22;;;;;;;;;;;6.00;99.90;;;;;;5135903;27;20358;-36
2022/11/05 07:15:48;;;;;;;;;;;6.00;99.90;;;;;;5134862;27;19934;-39
2022/11/05 07:18:13;;;;;;;;;;;6.00;99.90;;;;;;5134016;27;19916;-36
2022/11/05 07:20:39;;;;;;;;;;;6.10;99.90;;;;;;5134659;27;19964;-38
2022/11/05 07:23:06;;;;;;;;;;;6.10;99.90;;;;;;5133946;27;19919;-38
2022/11/05 07:25:32;;;;;;;;;;;6.20;99.90;;;;;;5134036;27;20385;-38
2022/11/05 07:27:57;;;;;;;;;;;6.20;99.90;;;;;;5133262;27;19937;-38
2022/11/05 07:30:23;;;;;;;;;;;6.20;99.90;;;;;;5134413;27;20010;-39
2022/11/05 07:32:48;;;;;;;;;;;6.30;99.90;;;;;;5134848;27;20255;-36
2022/11/05 07:35:14;;;;;;;;;;;6.30;99.90;;;;;;5134801;27;20417;-36
2022/11/05 07:37:42;;;;;;;;;;;6.30;99.90;;;;;;5134218;27;19908;-37
2022/11/05 07:40:09;;;;;;;;;;;6.30;99.90;;;;;;5134799;27;19933;-37
2022/11/05 07:42:34;;;;;;;;;;;6.40;99.90;;;;;;5134958;27;19972;-37
2022/11/05 07:45:00;;;;;;;;;;;6.40;99.90;;;;;;5134513;27;19907;-38
2022/11/05 07:47:25;;;;;;;;;;;6.50;99.90;;;;;;5134919;27;19915;-39
2022/11/05 07:49:51;;;;;;;;;;;6.50;99.90;;;;;;5135188;27;19938;-37
2022/11/05 07:52:16;;;;;;;;;;;6.50;99.90;;;;;;5134241;27;19918;-37
2022/11/05 07:54:41;;;;;;;;;;;6.60;99.90;;;;;;5135151;27;19919;-36
2022/11/05 07:57:07;;;;;;;;;;;6.70;99.90;;;;;;5135012;27;19907;-37
2022/11/05 07:59:32;;;;;;;;;;;6.70;99.90;;;;;;5134280;27;20392;-37
2022/11/05 08:01:58;;;;;;;;;;;6.80;99.90;;;;;;5134952;27;19908;-38
2022/11/05 08:04:23;;;;;;;;;;;6.90;99.90;;;;;;5134582;27;19914;-37
2022/11/05 08:06:49;;;;;;;;;;;6.90;99.90;;;;;;5134003;27;19914;-40
2022/11/05 08:09:14;;;;;;;;;;;7.00;99.90;;;;;;5135001;27;20361;-37
2022/11/05 08:11:39;;;;;;;;;;;7.00;99.90;;;;;;5135307;27;19907;-38
2022/11/05 08:14:05;;;;;;;;;;;7.10;99.90;;;;;;5134395;27;19951;-37
2022/11/05 08:16:30;;;;;;;;;;;7.20;99.90;;;;;;5135186;27;20361;-37
2022/11/05 08:18:56;;;;;;;;;;;7.20;99.90;;;;;;5135040;27;20361;-37
2022/11/05 08:21:21;;;;;;;;;;;7.20;99.90;;;;;;5134495;27;20002;-36
2022/11/05 08:23:47;;;;;;;;;;;7.30;99.90;;;;;;5134614;27;20370;-37
2022/11/05 08:26:12;;;;;;;;;;;7.40;99.90;;;;;;5134244;27;19907;-37
2022/11/05 08:28:38;;;;;;;;;;;7.40;99.90;;;;;;5134013;27;20089;-37
2022/11/05 08:31:03;;;;;;;;;;;7.50;99.90;;;;;;5133984;27;20345;-36
2022/11/05 08:33:30;;;;;;;;;;;7.60;99.90;;;;;;5132162;27;20063;-37
2022/11/05 08:35:55;;;;;;;;;;;7.60;99.90;;;;;;5132611;27;19919;-37
2022/11/05 08:38:21;;;;;;;;;;;7.70;99.90;;;;;;5132840;27;19907;-39
2022/11/05 08:40:52;;;;;;;;;;;7.80;99.90;;;;;;5132743;27;19911;-37
2022/11/05 08:43:18;;;;;;;;;;;7.80;99.90;;;;;;5133674;27;20277;-37
2022/11/05 08:45:43;;;;;;;;;;;7.90;99.90;;;;;;5134122;27;20377;-37
2022/11/05 08:48:10;;;;;;;;;;;7.90;99.90;;;;;;5133014;27;20014;-36
2022/11/05 08:50:36;;;;;;;;;;;8.00;99.90;;;;;;5133667;27;20460;-37
2022/11/05 08:53:02;;;;;;;;;;;8.10;99.90;;;;;;5133653;27;20014;-37
2022/11/05 08:55:28;;;;;;;;;;;8.20;99.90;;;;;;5133010;27;19922;-38
2022/11/05 08:57:57;;;;;;;;;;;8.30;99.90;;;;;;5133621;27;19912;-37
2022/11/05 09:00:23;;;;;;;;;;;8.30;99.90;;;;;;5133555;27;19959;-36
2022/11/05 09:02:49;;;;;;;;;;;8.40;99.90;;;;;;5132774;27;19998;-36
2022/11/05 09:05:14;;;;;;;;;;;8.50;99.90;;;;;;5133609;27;19908;-37
2022/11/05 09:07:40;;;;;;;;;;;8.50;99.90;;;;;;5133498;27;20387;-38
2022/11/05 09:10:05;;;;;;;;;;;8.60;99.90;;;;;;5125758;27;19912;-39
2022/11/05 09:12:31;;;;;;;;;;;8.80;99.90;;;;;;5113429;28;19959;-37
2022/11/05 09:14:56;;;;;;;;;;;8.90;99.90;;;;;;5112831;28;20006;-37
2022/11/05 09:17:21;;;;;;;;;;;8.90;99.90;;;;;;5112945;28;19934;-37
2022/11/05 09:19:47;;;;;;;;;;;9.00;99.90;;;;;;5113496;28;20278;-39
2022/11/05 09:22:13;;;;;;;;;;;9.10;99.90;;;;;;5113565;28;19907;-40
2022/11/05 09:24:38;;;;;;;;;;;9.20;99.90;;;;;;5112788;28;19908;-37
2022/11/05 09:27:04;;;;;;;;;;;9.30;99.90;;;;;;5113568;28;19907;-37
2022/11/05 09:29:30;;;;;;;;;;;9.40;99.90;;;;;;5113218;28;19907;-42
2022/11/05 09:31:55;;;;;;;;;;;9.50;99.90;;;;;;5113086;28;20274;-37
2022/11/05 09:34:21;;;;;;;;;;;9.60;99.90;;;;;;5113220;28;19915;-37
2022/11/05 09:36:47;;;;;;;;;;;9.70;99.90;;;;;;5112634;28;19907;-41
2022/11/05 09:39:12;;;;;;;;;;;9.80;99.90;;;;;;5113186;28;19908;-38
2022/11/05 09:41:38;;;;;;;;;;;9.80;99.90;;;;;;5133434;27;19940;-38
2022/11/05 09:44:06;;;;;;;;;;;9.90;99.90;;;;;;5132781;27;20380;-37
2022/11/05 09:46:45;;;;;;;;;;;10.00;99.90;;;;;;5133099;27;20403;-38
2022/11/05 09:49:43;;;;;;;;;;;10.10;99.90;;;;;;5133752;27;19908;-37
2022/11/05 09:52:13;;;;;;;;;;;10.20;99.90;;;;;;5086935;28;19912;-37
2022/11/05 09:54:39;;;;;;;;;;;10.30;99.90;;;;;;5133370;28;19915;-38
2022/11/05 09:57:06;;;;;;;;;;;10.40;99.90;;;;;;5133402;28;19908;-42
2022/11/05 09:59:32;;;;;;;;;;;10.50;99.90;;;;;;5132925;28;19919;-39
2022/11/05 10:02:18;;;;;;;;;;;10.50;99.90;;;;;;5134067;28;19960;-38
2022/11/05 10:04:45;;;;;;;;;;;10.60;99.90;;;;;;5133360;28;19907;-39
2022/11/05 10:07:14;;;;;;;;;;;10.70;99.90;;;;;;5133436;28;19964;-40
2022/11/05 10:09:44;;;;;;;;;;;10.80;99.90;;;;;;5131828;28;19918;-38
2022/11/05 10:12:12;;;;;;;;;;;10.80;99.90;;;;;;5130471;28;19974;-39
2022/11/05 10:14:43;;;;;;;;;;;10.90;99.90;;;;;;5131068;28;19959;-37
2022/11/05 10:17:16;;;;;;;;;;;11.00;99.90;;;;;;5129107;28;19908;-38
2022/11/05 10:19:43;;;;;;;;;;;11.00;99.90;;;;;;5131462;28;20119;-38
2022/11/05 10:22:10;;;;;;;;;;;11.20;99.90;;;;;;5132889;27;19907;-40
2022/11/05 10:24:36;;;;;;;;;;;11.20;99.90;;;;;;5133321;28;19908;-39
2022/11/05 10:27:02;;;;;;;;;;;11.30;99.90;;;;;;5135248;27;19908;-37
2022/11/05 10:29:31;;;;;;;;;;;11.30;99.90;;;;;;5137286;27;19915;-38
2022/11/05 10:31:58;;;;;;;;;;;11.40;99.90;;;;;;5136863;27;19967;-38
2022/11/05 10:34:26;;;;;;;;;;;11.50;99.90;;;;;;5136397;27;19915;-37
2022/11/05 10:36:53;;;;;;;;;;;11.60;99.90;;;;;;5137167;27;19907;-38
2022/11/05 10:39:19;;;;;;;;;;;11.70;99.90;;;;;;5136683;27;19911;-38
2022/11/05 10:42:09;;;;;;;;;;;11.70;99.90;;;;;;5135475;27;20370;-39
2022/11/05 10:44:49;;;;;;;;;;;11.80;99.90;;;;;;5134862;27;19956;-37
2022/11/05 10:47:33;;;;;;;;;;;11.90;99.90;;;;;;5134436;27;19911;-39
2022/11/05 10:50:03;;;;;;;;;;;12.00;99.90;;;;;;5135823;27;20014;-40
2022/11/05 10:52:32;;;;;;;;;;;12.00;99.90;;;;;;5136900;27;19908;-37
2022/11/05 10:54:59;;;;;;;;;;;12.00;99.90;;;;;;5136038;27;19915;-38
2022/11/05 10:57:35;;;;;;;;;;;12.00;99.90;;;;;;5136852;27;19922;-41
2022/11/05 11:00:20;;;;;;;;;;;12.00;99.90;;;;;;5136726;27;19938;-41
2022/11/05 11:02:56;;;;;;;;;;;12.00;99.90;;;;;;5136048;27;19951;-37
2022/11/05 11:05:29;;;;;;;;;;;12.00;99.90;;;;;;5136621;27;20353;-37
2022/11/05 11:07:54;;;;;;;;;;;12.00;99.90;;;;;;5136584;27;19911;-37
2022/11/05 11:10:20;;;;;;;;;;;12.00;99.90;;;;;;5135301;27;19998;-38
2022/11/05 11:12:48;;;;;;;;;;;12.10;99.90;;;;;;5135087;27;19911;-37
2022/11/05 11:15:20;;;;;;;;;;;12.10;99.90;;;;;;5131786;27;20281;-37
2022/11/05 11:17:45;;;;;;;;;;;12.10;99.90;;;;;;5135835;27;19911;-37
2022/11/05 11:20:30;;;;;;;;;;;12.20;99.90;;;;;;5134866;27;20341;-37
2022/11/05 11:22:56;;;;;;;;;;;12.20;99.90;;;;;;5114893;28;19911;-37
2022/11/05 11:25:25;;;;;;;;;;;12.30;99.90;;;;;;5115532;28;19969;-36
2022/11/05 11:27:51;;;;;;;;;;;12.30;99.90;;;;;;5115625;28;20379;-37
2022/11/05 11:30:17;;;;;;;;;;;12.30;99.90;;;;;;5114654;28;19919;-37
2022/11/05 11:32:43;;;;;;;;;;;12.20;99.90;;;;;;5115420;28;20374;-37
2022/11/05 11:35:18;;;;;;;;;;;12.30;99.90;;;;;;5115373;28;19918;-36
2022/11/05 11:37:44;;;;;;;;;;;12.40;99.90;;;;;;5114007;28;19908;-38
2022/11/05 11:40:13;;;;;;;;;;;12.50;99.90;;;;;;5115450;28;20010;-37
2022/11/05 11:42:39;;;;;;;;;;;12.50;99.90;;;;;;5115150;27;19920;-38
2022/11/05 11:45:13;;;;;;;;;;;12.60;99.90;;;;;;5114268;27;19919;-38
2022/11/05 11:47:41;;;;;;;;;;;12.80;99.90;;;;;;5119035;27;19919;-38
2022/11/05 11:50:26;;;;;;;;;;;12.80;99.90;;;;;;5115388;27;19919;-37
2022/11/05 11:52:52;;;;;;;;;;;13.00;99.90;;;;;;5135492;27;19911;-36
2022/11/05 11:55:19;;;;;;;;;;;13.10;99.90;;;;;;5135314;27;19907;-37
2022/11/05 11:57:49;;;;;;;;;;;13.10;99.90;;;;;;5134256;27;19911;-37
2022/11/05 12:00:15;;;;;;;;;;;12.90;99.90;;;;;;5141516;27;19961;-37
2022/11/05 12:02:45;;;;;;;;;;;12.70;99.90;;;;;;5141105;27;19998;-37
2022/11/05 12:05:30;;;;;;;;;;;12.50;99.90;;;;;;5127448;27;19916;-39
2022/11/05 12:07:59;;;;;;;;;;;12.40;99.90;;;;;;5131196;27;20338;-37
2022/11/05 12:10:34;;;;;;;;;;;12.40;99.90;;;;;;5135415;27;19911;-39
2022/11/05 12:13:19;;;;;;;;;;;12.30;99.90;;;;;;5132385;27;19966;-37
2022/11/05 12:15:51;;;;;;;;;;;12.30;99.90;;;;;;5133610;27;19976;-39
2022/11/05 12:18:52;;;;;;;;;;;12.20;99.90;;;;;;5132470;27;19907;-37
2022/11/05 12:21:24;;;;;;;;;;;12.20;99.90;;;;;;5051049;28;19942;-38
2022/11/05 12:24:00;;;;;;;;;;;12.20;99.90;;;;;;5120669;27;20411;-38
2022/11/05 12:26:31;;;;;;;;;;;12.20;99.90;;;;;;5135131;27;20451;-37
2022/11/05 12:29:15;;;;;;;;;;;12.20;99.90;;;;;;5132194;27;19907;-39
2022/11/05 12:31:47;;;;;;;;;;;12.20;99.90;;;;;;5132879;27;20000;-37
2022/11/05 12:34:16;;;;;;;;;;;12.10;99.90;;;;;;5131133;27;19934;-41
2022/11/05 12:36:41;;;;;;;;;;;12.10;99.90;;;;;;5134843;27;19907;-37
2022/11/05 12:39:22;;;;;;;;;;;12.10;99.90;;;;;;5126624;27;19915;-36
2022/11/05 12:41:59;;;;;;;;;;;12.10;99.90;;;;;;5137284;27;19918;-37
2022/11/05 12:44:24;;;;;;;;;;;12.10;99.90;;;;;;5137304;27;19912;-37
2022/11/05 12:47:11;;;;;;;;;;;12.10;99.90;;;;;;5128381;27;19908;-37
2022/11/05 12:49:42;;;;;;;;;;;12.10;99.90;;;;;;5154405;27;19914;-37
2022/11/05 12:52:08;;;;;;;;;;;12.10;99.90;;;;;;5138362;27;20069;-38
2022/11/05 12:54:33;;;;;;;;;;;12.10;99.90;;;;;;5115408;27;20487;-39
2022/11/05 12:57:01;;;;;;;;;;;12.10;99.90;;;;;;5134289;27;20001;-37
2022/11/05 12:59:26;;;;;;;;;;;12.10;99.90;;;;;;5134543;27;20002;-37
2022/11/05 13:02:12;;;;;;;;;;;12.10;99.90;;;;;;5133623;27;19992;-37
2022/11/05 13:04:44;;;;;;;;;;;12.10;99.90;;;;;;5138989;27;19907;-38
2022/11/05 13:07:11;;;;;;;;;;;12.20;99.90;;;;;;5155061;27;19907;-36
2022/11/05 13:09:49;;;;;;;;;;;12.20;99.90;;;;;;5154219;27;20373;-36
2022/11/05 13:12:17;;;;;;;;;;;12.20;99.90;;;;;;5155108;27;19907;-40
2022/11/05 13:14:42;;;;;;;;;;;12.20;99.90;;;;;;5153905;27;20326;-38
2022/11/05 13:17:22;;;;;;;;;;;12.30;99.90;;;;;;5154838;27;19907;-37
2022/11/05 13:19:52;;;;;;;;;;;12.30;99.90;;;;;;5154830;27;19952;-37
2022/11/05 13:22:37;;;;;;;;;;;12.30;99.90;;;;;;5150004;27;19915;-38
2022/11/05 13:25:09;;;;;;;;;;;12.40;99.90;;;;;;5113266;28;19907;-37
2022/11/05 13:27:37;;;;;;;;;;;12.40;99.90;;;;;;5113588;28;19969;-37
2022/11/05 13:30:04;;;;;;;;;;;12.40;99.90;;;;;;5112423;28;19912;-36
2022/11/05 13:32:31;;;;;;;;;;;12.40;99.90;;;;;;5120810;27;19920;-39
2022/11/05 13:34:58;;;;;;;;;;;12.50;99.90;;;;;;5129219;27;19915;-39
2022/11/05 13:40:12;;;;;;;;;;;12.50;99.90;;;;;;5137784;27;19950;-37
2022/11/05 13:42:56;;;;;;;;;;;12.50;99.90;;;;;;5133450;27;19919;-38
2022/11/05 13:45:28;;;;;;;;;;;12.50;99.90;;;;;;5133821;27;19961;-36
2022/11/05 13:47:54;;;;;;;;;;;12.40;99.90;;;;;;5133387;27;19908;-37
2022/11/05 13:50:31;;;;;;;;;;;12.40;99.90;;;;;;5132994;28;19907;-37
2022/11/05 13:53:09;;;;;;;;;;;12.30;99.90;;;;;;5112994;28;19907;-39
2022/11/05 13:55:37;;;;;;;;;;;12.20;99.90;;;;;;5113086;28;19908;-37
2022/11/05 13:58:11;;;;;;;;;;;12.20;99.90;;;;;;5112246;28;20436;-37
2022/11/05 14:00:55;;;;;;;;;;;12.20;99.90;;;;;;5115754;27;19920;-42
2022/11/05 14:03:20;;;;;;;;;;;12.10;99.90;;;;;;5136775;27;19907;-37
2022/11/05 14:05:56;;;;;;;;;;;12.10;99.90;;;;;;5136510;27;19998;-37
2022/11/05 14:08:23;;;;;;;;;;;12.10;99.90;;;;;;5137447;27;19908;-38
2022/11/05 14:11:15;;;;;;;;;;;12.00;99.90;;;;;;5136745;27;20366;-37
2022/11/05 14:13:42;;;;;;;;;;;12.00;99.90;;;;;;5130769;27;19919;-36
2022/11/05 14:16:16;;;;;;;;;;;12.00;99.90;;;;;;5132991;27;19912;-38
2022/11/05 14:18:46;;;;;;;;;;;11.90;99.90;;;;;;5135021;27;19914;-38
2022/11/05 14:21:24;;;;;;;;;;;11.90;99.90;;;;;;5138541;27;20241;-38
2022/11/05 14:23:50;;;;;;;;;;;11.90;99.90;;;;;;5157509;27;20386;-37
2022/11/05 14:26:23;;;;;;;;;;;11.80;99.90;;;;;;5156004;27;20369;-38
2022/11/05 14:29:09;;;;;;;;;;;11.80;99.90;;;;;;5148436;27;19912;-36
2022/11/05 14:31:40;;;;;;;;;;;11.80;99.90;;;;;;5125432;27;19911;-39
2022/11/05 14:34:08;;;;;;;;;;;11.70;99.90;;;;;;5120776;27;20016;-37
2022/11/05 14:36:35;;;;;;;;;;;11.70;99.90;;;;;;5136445;27;20433;-37
2022/11/05 14:39:12;;;;;;;;;;;11.70;99.90;;;;;;5132555;27;20004;-38
2022/11/05 14:41:56;;;;;;;;;;;11.70;99.90;;;;;;5131482;27;19918;-38
2022/11/05 14:44:23;;;;;;;;;;;11.60;99.90;;;;;;5127135;27;20376;-37
2022/11/05 14:46:49;;;;;;;;;;;11.50;99.90;;;;;;5127096;27;20010;-37
2022/11/05 14:49:17;;;;;;;;;;;11.50;99.90;;;;;;5129166;27;19908;-38
2022/11/05 14:51:43;;;;;;;;;;;11.50;99.90;;;;;;5121282;27;19971;-39
2022/11/05 14:54:18;;;;;;;;;;;11.50;99.90;;;;;;5128068;27;19920;-37
2022/11/05 14:56:48;;;;;;;;;;;11.40;99.90;;;;;;5131873;27;19911;-39
2022/11/05 14:59:22;;;;;;;;;;;11.40;99.90;;;;;;5115294;28;19911;-40
2022/11/05 15:01:47;;;;;;;;;;;11.30;99.90;;;;;;5116265;28;19914;-39
2022/11/05 15:04:16;;;;;;;;;;;11.30;99.90;;;;;;5116744;28;19908;-38
2022/11/05 15:07:05;;;;;;;;;;;11.30;99.90;;;;;;5117102;28;20343;-39
2022/11/05 15:09:35;;;;;;;;;;;11.30;99.90;;;;;;5110310;28;19932;-38
2022/11/05 15:12:08;;;;;;;;;;;11.20;99.90;;;;;;5121897;27;19918;-37
2022/11/05 15:14:33;;;;;;;;;;;11.20;99.90;;;;;;5135973;27;20037;-40
2022/11/05 15:17:03;;;;;;;;;;;11.20;99.90;;;;;;5137010;27;20006;-37
2022/11/05 15:19:31;;;;;;;;;;;11.10;99.90;;;;;;5157329;27;20002;-37
2022/11/05 15:21:57;;;;;;;;;;;11.10;99.90;;;;;;5157115;27;20372;-37